createdAt,value
2018-01-08T00:00:17.977Z,2.47
2018-01-08T00:02:45.635Z,1.77
2018-01-08T00:05:13.257Z,2.47
2018-01-08T00:07:40.851Z,2.50
2018-01-08T00:10:08.513Z,2.07
2018-01-08T00:12:36.117Z,2.40
2018-01-08T00:15:04.476Z,1.90
2018-01-08T00:17:32.104Z,1.67
2018-01-08T00:19:59.713Z,1.57
2018-01-08T00:22:28.111Z,2.03
2018-01-08T00:24:55.697Z,2.07
2018-01-08T00:27:23.320Z,2.00
2018-01-08T00:29:51.709Z,2.10
2018-01-08T00:32:20.075Z,2.20
2018-01-08T00:34:48.609Z,2.10
2018-01-08T00:37:17.000Z,2.40
2018-01-08T00:39:44.596Z,2.27
2018-01-08T00:42:13.006Z,2.13
2018-01-08T00:44:40.605Z,1.70
2018-01-08T00:47:08.365Z,2.50
2018-01-08T00:49:35.951Z,2.27
2018-01-08T00:52:04.313Z,2.20
2018-01-08T00:54:31.953Z,5.23
2018-01-08T00:56:59.549Z,2.37
2018-01-08T00:59:27.180Z,2.80
2018-01-08T01:01:54.832Z,2.33
2018-01-08T01:04:22.501Z,2.13
2018-01-08T01:06:50.121Z,2.20
2018-01-08T01:09:17.712Z,2.57
2018-01-08T01:11:45.344Z,2.40
2018-01-08T01:14:12.937Z,2.17
2018-01-08T01:16:40.538Z,2.80
2018-01-08T01:19:08.927Z,3.17
2018-01-08T01:21:37.358Z,2.87
2018-01-08T01:24:04.982Z,2.17
2018-01-08T01:26:32.584Z,2.60
2018-01-08T01:29:00.184Z,2.40
2018-01-08T01:31:28.577Z,2.70
2018-01-08T01:33:56.944Z,2.67
2018-01-08T01:36:25.337Z,2.83
2018-01-08T01:38:52.954Z,2.47
2018-01-08T01:41:20.557Z,3.20
2018-01-08T01:43:48.943Z,3.00
2018-01-08T01:46:16.546Z,2.43
2018-01-08T01:48:44.181Z,2.40
2018-01-08T01:51:11.785Z,1.90
2018-01-08T01:53:39.381Z,2.40
2018-01-08T01:56:07.000Z,2.80
2018-01-08T01:58:34.592Z,2.23
2018-01-08T02:01:02.977Z,2.00
2018-01-08T02:03:31.334Z,1.83
2018-01-08T02:05:58.965Z,2.47
2018-01-08T02:08:26.571Z,2.17
2018-01-08T02:10:54.935Z,2.53
2018-01-08T02:13:22.564Z,2.57
2018-01-08T02:15:50.152Z,1.97
2018-01-08T02:18:17.794Z,2.30
2018-01-08T02:20:45.385Z,2.00
2018-01-08T02:23:13.738Z,3.10
2018-01-08T02:25:42.877Z,2.23
2018-01-08T02:28:10.480Z,2.07
2018-01-08T02:30:38.127Z,2.70
2018-01-08T02:33:05.724Z,2.33
2018-01-08T02:35:33.331Z,2.77
2018-01-08T02:38:00.957Z,2.70
2018-01-08T02:40:29.329Z,3.20
2018-01-08T02:42:56.972Z,2.40
2018-01-08T02:45:24.574Z,3.00
2018-01-08T02:47:52.180Z,2.70
2018-01-08T02:50:19.819Z,2.50
2018-01-08T02:52:47.497Z,2.63
2018-01-08T02:55:15.117Z,2.90
2018-01-08T02:57:43.486Z,2.40
2018-01-08T03:00:11.885Z,2.33
2018-01-08T03:02:39.491Z,2.77
2018-01-08T03:05:07.084Z,3.80
2018-01-08T03:07:34.704Z,3.33
2018-01-08T03:10:02.312Z,3.20
2018-01-08T03:12:30.703Z,3.13
2018-01-08T03:14:59.056Z,3.70
2018-01-08T03:17:26.654Z,2.87
2018-01-08T03:19:54.265Z,3.63
2018-01-08T03:22:21.891Z,3.80
2018-01-08T03:24:49.528Z,4.33
2018-01-08T03:27:17.123Z,3.43
2018-01-08T03:29:44.757Z,3.40
2018-01-08T03:32:12.392Z,3.87
2018-01-08T03:34:40.748Z,3.80
2018-01-08T03:37:09.884Z,3.30
2018-01-08T03:39:37.484Z,3.20
2018-01-08T03:42:05.085Z,3.57
2018-01-08T03:44:33.484Z,3.80
2018-01-08T03:47:01.105Z,3.90
2018-01-08T03:49:28.744Z,3.53
2018-01-08T03:51:56.339Z,3.50
2018-01-08T03:54:23.933Z,2.90
2018-01-08T03:56:51.626Z,3.07
2018-01-08T03:59:19.224Z,3.10
2018-01-08T04:01:47.609Z,2.80
2018-01-08T04:04:15.968Z,3.40
2018-01-08T04:06:43.602Z,2.87
2018-01-08T04:09:11.197Z,2.80
2018-01-08T04:11:38.828Z,2.73
2018-01-08T04:14:06.458Z,3.00
2018-01-08T04:16:34.071Z,2.90
2018-01-08T04:19:01.706Z,2.83
2018-01-08T04:21:29.305Z,2.60
2018-01-08T04:23:56.896Z,3.03
2018-01-08T04:26:24.525Z,3.50
2018-01-08T04:28:52.125Z,3.00
2018-01-08T04:31:19.744Z,3.57
2018-01-08T04:33:47.345Z,3.20
2018-01-08T04:36:15.590Z,3.73
2018-01-08T04:38:43.952Z,3.30
2018-01-08T04:41:12.349Z,3.17
2018-01-08T04:43:40.723Z,2.70
2018-01-08T04:46:08.350Z,2.97
2018-01-08T04:48:35.940Z,3.40
2018-01-08T04:51:03.581Z,3.40
2018-01-08T04:53:31.208Z,2.70
2018-01-08T04:55:58.819Z,2.80
2018-01-08T04:58:26.436Z,2.70
2018-01-08T05:00:54.033Z,2.90
2018-01-08T05:03:21.627Z,2.77
2018-01-08T05:05:50.021Z,3.17
2018-01-08T05:08:17.616Z,2.70
2018-01-08T05:10:45.207Z,3.37
2018-01-08T05:13:12.826Z,3.77
2018-01-08T05:15:44.799Z,3.47
2018-01-08T05:18:13.352Z,3.00
2018-01-08T05:20:40.954Z,3.40
2018-01-08T05:23:08.577Z,4.47
2018-01-08T05:25:36.172Z,3.00
2018-01-08T05:28:03.802Z,2.73
2018-01-08T05:30:34.857Z,2.90
2018-01-08T05:33:02.813Z,3.03
2018-01-08T05:35:30.408Z,3.37
2018-01-08T05:37:58.004Z,3.30
2018-01-08T05:40:26.450Z,3.20
2018-01-08T05:42:54.027Z,3.23
2018-01-08T05:45:22.426Z,2.90
2018-01-08T05:47:50.785Z,4.07
2018-01-08T05:50:18.405Z,4.03
2018-01-08T05:52:46.005Z,3.50
2018-01-08T05:55:14.410Z,4.50
2018-01-08T05:57:42.010Z,5.00
2018-01-08T06:00:09.610Z,4.03
2018-01-08T06:02:38.080Z,3.73
2018-01-08T06:05:05.689Z,5.10
2018-01-08T06:07:33.313Z,4.30
2018-01-08T06:10:00.922Z,3.50
2018-01-08T06:12:28.549Z,4.10
2018-01-08T06:14:56.975Z,3.60
2018-01-08T06:17:24.608Z,3.47
2018-01-08T06:19:52.203Z,4.10
2018-01-08T06:22:19.829Z,3.70
2018-01-08T06:24:47.465Z,4.20
2018-01-08T06:27:15.836Z,3.70
2018-01-08T06:29:44.244Z,3.93
2018-01-08T06:32:11.992Z,3.30
2018-01-08T06:34:40.395Z,4.67
2018-01-08T06:37:07.985Z,4.20
2018-01-08T06:39:35.610Z,5.37
2018-01-08T06:42:03.209Z,4.60
2018-01-08T06:44:30.800Z,4.17
2018-01-08T06:46:59.225Z,4.60
2018-01-08T06:49:26.873Z,4.47
2018-01-08T06:51:54.500Z,4.23
2018-01-08T06:54:22.127Z,4.30
2018-01-08T06:56:49.727Z,3.77
2018-01-08T06:59:18.116Z,4.10
2018-01-08T07:01:46.486Z,3.30
2018-01-08T07:04:14.883Z,3.60
2018-01-08T07:06:42.481Z,4.23
2018-01-08T07:09:10.094Z,4.13
2018-01-08T07:11:38.531Z,4.33
2018-01-08T07:14:06.145Z,4.33
2018-01-08T07:16:33.793Z,4.40
2018-01-08T07:19:02.164Z,4.70
2018-01-08T07:21:30.588Z,4.77
2018-01-08T07:23:58.189Z,3.63
2018-01-08T07:26:25.820Z,3.97
2018-01-08T07:28:53.412Z,4.10
2018-01-08T07:31:21.049Z,4.00
2018-01-08T07:33:48.657Z,3.63
2018-01-08T07:36:17.040Z,4.30
2018-01-08T07:38:44.673Z,3.60
2018-01-08T07:41:12.265Z,4.03
2018-01-08T07:43:40.644Z,4.30
2018-01-08T07:46:09.014Z,4.60
2018-01-08T07:48:37.404Z,4.70
2018-01-08T07:51:05.109Z,6.90
2018-01-08T07:53:32.752Z,3.93
2018-01-08T07:56:00.355Z,4.90
2018-01-08T07:58:27.958Z,5.07
2018-01-08T08:00:55.581Z,4.13
2018-01-08T08:03:23.184Z,3.27
2018-01-08T08:05:50.809Z,3.83
2018-01-08T08:08:18.400Z,4.50
2018-01-08T08:10:45.988Z,4.40
2018-01-08T08:13:13.981Z,4.07
2018-01-08T08:15:41.587Z,4.33
2018-01-08T08:18:09.209Z,4.60
2018-01-08T08:20:36.807Z,4.10
2018-01-08T08:23:04.458Z,4.53
2018-01-08T08:25:32.822Z,4.50
2018-01-08T08:28:00.440Z,4.20
2018-01-08T08:30:28.328Z,4.80
2018-01-08T08:32:55.965Z,3.77
2018-01-08T08:35:23.566Z,4.03
2018-01-08T08:37:51.164Z,4.80
2018-01-08T08:40:18.834Z,4.77
2018-01-08T08:42:46.451Z,5.00
2018-01-08T08:45:14.893Z,3.90
2018-01-08T08:47:42.488Z,4.73
2018-01-08T08:50:10.222Z,4.40
2018-01-08T08:52:37.829Z,3.60
2018-01-08T08:55:06.230Z,4.73
2018-01-08T08:57:33.835Z,4.90
2018-01-08T09:00:01.438Z,4.50
2018-01-08T09:02:29.829Z,5.03
2018-01-08T09:04:57.431Z,4.03
2018-01-08T09:07:25.064Z,3.80
2018-01-08T09:09:52.748Z,4.20
2018-01-08T09:12:20.393Z,4.33
2018-01-08T09:14:48.097Z,3.20
2018-01-08T09:17:15.726Z,3.27
2018-01-08T09:19:43.352Z,3.50
2018-01-08T09:22:10.986Z,3.90
2018-01-08T09:24:39.378Z,4.13
2018-01-08T09:27:07.812Z,2.47
2018-01-08T09:29:35.584Z,3.00
2018-01-08T09:32:03.362Z,2.97
2018-01-08T09:34:31.007Z,3.60
2018-01-08T09:36:58.769Z,3.20
2018-01-08T09:39:26.420Z,2.10
2018-01-08T09:41:54.015Z,3.17
2018-01-08T09:44:21.613Z,4.13
2018-01-08T09:46:49.243Z,2.93
2018-01-08T09:49:16.842Z,3.43
2018-01-08T09:51:44.479Z,3.60
2018-01-08T09:54:12.843Z,3.47
2018-01-08T09:56:41.225Z,2.10
2018-01-08T09:59:09.585Z,3.20
2018-01-08T10:01:37.209Z,3.13
2018-01-08T10:04:16.867Z,3.43
2018-01-08T10:06:56.236Z,3.37
2018-01-08T10:09:35.648Z,4.00
2018-01-08T10:12:15.212Z,5.77
2018-01-08T10:14:54.660Z,3.77
2018-01-08T10:17:34.155Z,3.50
2018-01-08T10:20:01.866Z,3.97
2018-01-08T10:22:30.236Z,3.40
2018-01-08T10:24:57.857Z,3.83
2018-01-08T10:27:25.453Z,3.53
2018-01-08T10:29:53.169Z,4.07
2018-01-08T10:32:20.836Z,4.20
2018-01-08T10:34:48.620Z,4.37
2018-01-08T10:37:16.253Z,3.17
2018-01-08T10:39:43.893Z,3.10
2018-01-08T10:42:18.012Z,4.50
2018-01-08T10:44:51.315Z,3.43
2018-01-08T10:47:24.508Z,4.07
2018-01-08T10:49:57.780Z,3.50
2018-01-08T10:52:25.658Z,3.10
2018-01-08T10:54:56.977Z,3.90
2018-01-08T10:57:24.604Z,3.07
2018-01-08T10:59:52.212Z,3.63
2018-01-08T11:02:26.241Z,3.40
2018-01-08T11:04:53.841Z,2.30
2018-01-08T11:07:21.598Z,2.60
2018-01-08T11:09:49.248Z,3.30
2018-01-08T11:12:17.047Z,3.10
2018-01-08T11:14:44.678Z,3.27
2018-01-08T11:17:12.385Z,2.50
2018-01-08T11:19:40.734Z,2.73
2018-01-08T11:22:08.416Z,3.80
2018-01-08T11:24:36.102Z,3.03
2018-01-08T11:27:04.507Z,2.57
2018-01-08T11:29:32.190Z,2.83
2018-01-08T11:31:59.800Z,3.80
2018-01-08T11:34:28.158Z,2.40
2018-01-08T11:36:55.875Z,3.00
2018-01-08T11:39:24.467Z,2.17
2018-01-08T11:41:52.126Z,2.30
2018-01-08T11:44:19.730Z,2.70
2018-01-08T11:46:47.392Z,2.07
2018-01-08T11:49:15.038Z,2.80
2018-01-08T11:51:42.707Z,2.40
2018-01-08T11:54:10.450Z,1.77
2018-01-08T11:56:38.054Z,2.00
2018-01-08T11:59:05.966Z,2.10
2018-01-08T12:01:33.582Z,2.27
2018-01-08T12:04:01.261Z,2.50
2018-01-08T12:06:28.977Z,2.40
2018-01-08T12:08:56.620Z,2.10
2018-01-08T12:11:24.286Z,2.23
2018-01-08T12:13:51.929Z,2.20
2018-01-08T12:16:19.538Z,2.70
2018-01-08T12:18:47.221Z,3.23
2018-01-08T12:21:15.612Z,2.40
2018-01-08T12:23:43.973Z,2.23
2018-01-08T12:26:12.353Z,1.67
2018-01-08T12:28:40.757Z,2.50
2018-01-08T12:31:08.393Z,2.87
2018-01-08T12:33:39.426Z,2.97
2018-01-08T12:36:08.053Z,2.50
2018-01-08T12:38:35.657Z,2.43
2018-01-08T12:41:03.242Z,1.77
2018-01-08T12:43:31.674Z,3.07
2018-01-08T12:46:00.238Z,2.63
2018-01-08T12:48:28.227Z,2.57
2018-01-08T12:50:56.098Z,2.63
2018-01-08T12:53:24.061Z,2.10
2018-01-08T12:55:51.699Z,3.10
2018-01-08T12:58:19.290Z,3.07
2018-01-08T13:00:46.925Z,1.90
2018-01-08T13:03:14.516Z,2.30
2018-01-08T13:05:42.145Z,1.77
2018-01-08T13:08:09.792Z,2.70
2018-01-08T13:10:37.700Z,3.07
2018-01-08T13:13:05.329Z,1.90
2018-01-08T13:15:33.028Z,2.60
2018-01-08T13:18:00.638Z,2.57
2018-01-08T13:20:29.040Z,2.20
2018-01-08T13:22:56.665Z,2.93
2018-01-08T13:25:25.061Z,1.60
2018-01-08T13:27:54.367Z,2.50
2018-01-08T13:30:21.984Z,2.17
2018-01-08T13:32:49.616Z,2.97
2018-01-08T13:35:17.217Z,3.30
2018-01-08T13:37:45.592Z,2.53
2018-01-08T13:40:13.217Z,2.70
2018-01-08T13:42:40.824Z,2.80
2018-01-08T13:45:09.240Z,2.80
2018-01-08T13:47:36.906Z,3.10
2018-01-08T13:50:04.546Z,2.70
2018-01-08T13:52:32.946Z,2.50
2018-01-08T13:55:00.594Z,2.90
2018-01-08T13:57:28.197Z,1.80
2018-01-08T13:59:55.952Z,2.40
2018-01-08T14:02:23.732Z,2.30
2018-01-08T14:04:51.496Z,2.07
2018-01-08T14:07:19.463Z,2.00
2018-01-08T14:09:47.442Z,2.90
2018-01-08T14:12:15.401Z,2.67
2018-01-08T14:14:43.269Z,2.50
2018-01-08T14:17:11.238Z,2.30
2018-01-08T14:19:39.207Z,3.30
2018-01-08T14:22:07.110Z,2.27
2018-01-08T14:24:35.867Z,2.53
2018-01-08T14:27:03.727Z,2.23
2018-01-08T14:29:31.699Z,2.17
2018-01-08T14:31:59.564Z,2.67
2018-01-08T14:34:27.425Z,2.50
2018-01-08T14:36:55.399Z,2.20
2018-01-08T14:39:23.264Z,2.67
2018-01-08T14:41:51.136Z,2.33
2018-01-08T14:44:18.996Z,2.50
2018-01-08T14:46:46.875Z,2.83
2018-01-08T14:49:14.738Z,2.20
2018-01-08T14:51:42.727Z,2.37
2018-01-08T14:54:11.387Z,2.37
2018-01-08T14:56:39.253Z,1.70
2018-01-08T14:59:06.848Z,2.30
2018-01-08T15:01:35.224Z,2.60
2018-01-08T15:04:03.634Z,2.20
2018-01-08T15:06:31.233Z,2.00
2018-01-08T15:08:58.861Z,2.37
2018-01-08T15:11:26.469Z,2.10
2018-01-08T15:13:54.121Z,1.73
2018-01-08T15:16:21.728Z,2.07
2018-01-08T15:18:49.348Z,1.67
2018-01-08T15:21:16.963Z,1.80
2018-01-08T15:23:44.609Z,2.07
2018-01-08T15:26:12.250Z,2.50
2018-01-08T15:28:40.903Z,2.10
2018-01-08T15:31:08.776Z,2.20
2018-01-08T15:33:36.652Z,2.20
2018-01-08T15:36:04.508Z,1.87
2018-01-08T15:38:32.473Z,1.50
2018-01-08T15:41:00.348Z,1.80
2018-01-08T15:43:28.318Z,1.73
2018-01-08T15:45:56.178Z,1.83
2018-01-08T15:48:24.043Z,1.67
2018-01-08T15:50:52.846Z,1.70
2018-01-08T15:53:20.799Z,2.17
2018-01-08T15:55:48.677Z,2.40
2018-01-08T15:58:16.591Z,2.03
2018-01-08T16:00:44.400Z,1.83
2018-01-08T16:03:12.380Z,2.50
2018-01-08T16:05:41.770Z,2.20
2018-01-08T16:08:09.655Z,2.30
2018-01-08T16:10:37.565Z,1.90
2018-01-08T16:13:05.480Z,2.60
2018-01-08T16:15:33.345Z,3.10
2018-01-08T16:18:01.209Z,2.60
2018-01-08T16:20:29.176Z,2.67
2018-01-08T16:22:57.048Z,2.77
2018-01-08T16:25:25.014Z,2.17
2018-01-08T16:27:53.197Z,1.80
2018-01-08T16:30:21.057Z,2.77
2018-01-08T16:32:49.023Z,2.17
2018-01-08T16:35:16.889Z,2.10
2018-01-08T16:37:44.861Z,1.80
2018-01-08T16:40:12.727Z,1.77
2018-01-08T16:42:40.623Z,1.87
2018-01-08T16:45:08.565Z,3.00
2018-01-08T16:47:36.431Z,2.10
2018-01-08T16:50:04.401Z,2.27
2018-01-08T16:52:32.267Z,3.07
2018-01-08T16:55:00.137Z,2.27
2018-01-08T16:57:27.993Z,2.90
2018-01-08T16:59:55.874Z,2.30
2018-01-08T17:02:23.735Z,3.10
2018-01-08T17:04:51.600Z,2.13
2018-01-08T17:07:19.519Z,1.93
2018-01-08T17:09:47.431Z,2.40
2018-01-08T17:12:15.401Z,2.20
2018-01-08T17:14:43.265Z,2.00
2018-01-08T17:17:11.239Z,2.20
2018-01-08T17:19:39.105Z,2.37
2018-01-08T17:22:06.921Z,2.60
2018-01-08T17:24:34.739Z,3.57
2018-01-08T17:27:02.709Z,2.13
2018-01-08T17:29:30.570Z,2.70
2018-01-08T17:31:58.487Z,2.43
2018-01-08T17:34:27.128Z,2.73
2018-01-08T17:36:54.989Z,1.93
2018-01-08T17:39:22.856Z,2.60
2018-01-08T17:41:50.677Z,2.00
2018-01-08T17:44:18.592Z,2.90
2018-01-08T17:46:46.456Z,1.73
2018-01-08T17:49:14.426Z,2.10
2018-01-08T17:51:42.297Z,3.20
2018-01-08T17:54:10.163Z,1.87
2018-01-08T17:56:38.027Z,2.00
2018-01-08T17:59:05.895Z,2.17
2018-01-08T18:01:33.862Z,2.57
2018-01-08T18:04:01.731Z,3.03
2018-01-08T18:06:29.546Z,2.63
2018-01-08T18:08:58.181Z,2.97
2018-01-08T18:11:26.044Z,2.53
2018-01-08T18:13:53.912Z,2.13
2018-01-08T18:16:21.784Z,2.07
2018-01-08T18:18:49.651Z,2.60
2018-01-08T18:21:17.571Z,2.80
2018-01-08T18:23:45.384Z,1.47
2018-01-08T18:26:13.246Z,2.90
2018-01-08T18:28:41.117Z,2.70
2018-01-08T18:31:09.036Z,3.20
2018-01-08T18:33:36.952Z,3.10
2018-01-08T18:36:04.814Z,2.43
2018-01-08T18:38:32.688Z,1.80
2018-01-08T18:41:00.650Z,2.50
2018-01-08T18:43:28.529Z,3.10
2018-01-08T18:45:56.382Z,2.80
2018-01-08T18:48:24.253Z,3.00
2018-01-08T18:50:52.002Z,2.97
2018-01-08T18:53:19.585Z,3.17
2018-01-08T18:55:47.218Z,2.67
2018-01-08T18:58:14.810Z,3.20
2018-01-08T19:00:42.415Z,2.20
2018-01-08T19:03:10.036Z,2.80
2018-01-08T19:05:39.155Z,3.20
2018-01-08T19:08:06.781Z,2.93
2018-01-08T19:10:34.382Z,2.63
2018-01-08T19:13:02.011Z,3.10
2018-01-08T19:15:29.605Z,1.90
2018-01-08T19:17:57.224Z,3.97
2018-01-08T19:20:24.836Z,3.30
2018-01-08T19:22:52.531Z,2.80
2018-01-08T19:25:20.186Z,2.50
2018-01-08T19:27:47.771Z,2.17
2018-01-08T19:30:16.158Z,2.37
2018-01-08T19:32:43.765Z,2.43
2018-01-08T19:35:11.448Z,3.13
2018-01-08T19:37:39.042Z,2.50
2018-01-08T19:40:06.646Z,2.60
2018-01-08T19:42:34.260Z,3.50
2018-01-08T19:45:01.864Z,2.27
2018-01-08T19:47:29.493Z,2.97
2018-01-08T19:49:57.341Z,2.83
2018-01-08T19:52:25.270Z,2.70
2018-01-08T19:54:53.176Z,2.80
2018-01-08T19:57:21.040Z,2.90
2018-01-08T19:59:48.910Z,2.57
2018-01-08T20:02:16.943Z,3.33
2018-01-08T20:04:44.856Z,3.90
2018-01-08T20:07:12.713Z,2.50
2018-01-08T20:09:40.677Z,3.60
2018-01-08T20:12:08.554Z,2.13
2018-01-08T20:14:36.419Z,2.80
2018-01-08T20:17:04.283Z,2.83
2018-01-08T20:19:32.248Z,2.30
2018-01-08T20:22:00.115Z,3.13
2018-01-08T20:24:28.084Z,3.07
2018-01-08T20:26:55.950Z,3.00
2018-01-08T20:29:23.830Z,2.87
2018-01-08T20:31:51.637Z,2.90
2018-01-08T20:34:19.450Z,3.00
2018-01-08T20:36:47.314Z,2.20
2018-01-08T20:39:16.005Z,2.50
2018-01-08T20:41:43.980Z,3.63
2018-01-08T20:44:11.838Z,2.70
2018-01-08T20:46:40.542Z,3.27
2018-01-08T20:49:11.156Z,4.07
2018-01-08T20:51:38.932Z,3.07
2018-01-08T20:54:06.673Z,3.57
2018-01-08T20:56:34.271Z,3.97
2018-01-08T20:59:02.662Z,3.40
2018-01-08T21:01:31.031Z,3.50
2018-01-08T21:03:59.420Z,3.40
2018-01-08T21:06:27.785Z,3.87
2018-01-08T21:08:56.180Z,2.80
2018-01-08T21:11:24.538Z,3.77
2018-01-08T21:13:52.972Z,2.70
2018-01-08T21:16:20.669Z,3.17
2018-01-08T21:18:48.265Z,3.23
2018-01-08T21:21:15.885Z,2.43
2018-01-08T21:23:43.482Z,4.10
2018-01-08T21:26:11.865Z,2.77
2018-01-08T21:28:39.568Z,2.40
2018-01-08T21:31:07.204Z,2.17
2018-01-08T21:33:34.789Z,2.00
2018-01-08T21:36:02.399Z,2.90
2018-01-08T21:38:30.828Z,3.27
2018-01-08T21:40:58.416Z,3.50
2018-01-08T21:43:26.049Z,2.93
2018-01-08T21:45:53.643Z,1.37
2018-01-08T21:48:21.273Z,3.60
2018-01-08T21:50:48.869Z,2.83
2018-01-08T21:53:17.233Z,4.00
2018-01-08T21:55:44.869Z,3.83
2018-01-08T21:58:12.452Z,3.73
2018-01-08T22:00:41.626Z,3.30
2018-01-08T22:03:09.218Z,3.03
2018-01-08T22:05:37.605Z,3.50
2018-01-08T22:08:05.192Z,3.93
2018-01-08T22:10:32.808Z,3.00
2018-01-08T22:13:00.400Z,3.63
2018-01-08T22:15:28.796Z,3.20
2018-01-08T22:17:56.408Z,3.10
2018-01-08T22:20:24.002Z,3.50
2018-01-08T22:22:52.396Z,4.03
2018-01-08T22:25:19.989Z,3.50
2018-01-08T22:27:47.656Z,3.00
2018-01-08T22:30:15.241Z,3.83
2018-01-08T22:32:42.870Z,4.13
2018-01-08T22:35:10.516Z,3.40
2018-01-08T22:37:38.118Z,3.60
2018-01-08T22:40:05.760Z,3.70
2018-01-08T22:42:33.373Z,3.57
2018-01-08T22:45:00.961Z,3.30
2018-01-08T22:47:28.581Z,4.00
2018-01-08T22:49:57.122Z,3.07
2018-01-08T22:52:24.773Z,2.50
2018-01-08T22:54:52.372Z,4.57
2018-01-08T22:57:20.729Z,3.27
2018-01-08T22:59:48.358Z,2.67
2018-01-08T23:02:15.975Z,3.53
2018-01-08T23:04:44.373Z,3.30
2018-01-08T23:07:12.738Z,3.10
2018-01-08T23:09:41.113Z,3.23
2018-01-08T23:12:08.744Z,3.90
2018-01-08T23:14:36.341Z,3.57
2018-01-08T23:17:04.734Z,3.30
2018-01-08T23:19:32.328Z,3.87
2018-01-08T23:21:59.919Z,4.50
2018-01-08T23:24:27.556Z,3.23
2018-01-08T23:26:55.138Z,3.73
2018-01-08T23:29:22.880Z,2.83
2018-01-08T23:31:50.560Z,2.73
2018-01-08T23:34:18.203Z,3.67
2018-01-08T23:36:45.788Z,3.30
2018-01-08T23:39:13.391Z,4.23
2018-01-08T23:41:41.022Z,2.97
2018-01-08T23:44:10.184Z,4.40
2018-01-08T23:46:37.833Z,2.60
2018-01-08T23:49:05.425Z,3.80
2018-01-08T23:51:33.089Z,3.20
2018-01-08T23:54:00.719Z,3.90
2018-01-08T23:56:28.324Z,3.33
2018-01-08T23:58:56.785Z,4.33
